Time;durP1;ratioP1;P1;durP2;ratioP2;P2;SDS_P1;SDS_P2;PMS_P1;PMS_P2;Temp;Humidity;BMP_temperature;BMP_pressure;BME280_temperature;BME280_humidity;BME280_pressure;Samples;Min_cycle;Max_cycle;Signal;HPM_P1;HPM_P2
2022/11/17 00:00:33;;;;;;;2.00;1.90;;;8.10;99.90;;;;;;5091200;28;21488;-80
2022/11/17 00:03:01;;;;;;;1.67;1.57;;;8.10;99.90;;;;;;5088256;28;20628;-80
2022/11/17 00:05:27;;;;;;;2.37;2.27;;;8.20;99.90;;;;;;5088013;28;21213;-80
2022/11/17 00:07:54;;;;;;;2.57;2.37;;;8.20;99.90;;;;;;5088082;28;20631;-80
2022/11/17 00:10:21;;;;;;;2.07;1.97;;;8.20;99.90;;;;;;5088505;28;20619;-80
2022/11/17 00:15:32;;;;;;;3.10;2.37;;;8.20;99.90;;;;;;5087918;28;20963;-81
2022/11/17 00:23:45;;;;;;;6.30;1.63;;;8.10;99.90;;;;;;5108185;27;20615;-80
2022/11/17 00:26:13;;;;;;;3.93;3.10;;;8.10;99.90;;;;;;5108026;28;20631;-80
2022/11/17 00:28:40;;;;;;;3.90;2.60;;;8.00;99.90;;;;;;5108574;28;20622;-80
2022/11/17 00:34:07;;;;;;;3.30;2.10;;;8.00;99.90;;;;;;5108161;28;20966;-80
2022/11/17 00:36:38;;;;;;;4.00;3.10;;;8.00;99.90;;;;;;5107553;28;20651;-80
2022/11/17 00:39:06;;;;;;;3.67;2.97;;;8.10;99.90;;;;;;5108341;28;20623;-80
2022/11/17 00:41:32;;;;;;;2.70;1.67;;;8.00;99.90;;;;;;5108380;28;20718;-80
2022/11/17 00:43:59;;;;;;;3.13;2.43;;;8.10;99.90;;;;;;5108252;28;20725;-80
2022/11/17 00:46:26;;;;;;;2.70;2.50;;;8.10;99.90;;;;;;5107627;28;20634;-80
2022/11/17 00:48:53;;;;;;;2.77;2.57;;;8.20;99.90;;;;;;5107930;28;21047;-80
2022/11/17 00:51:20;;;;;;;2.63;2.43;;;8.20;99.90;;;;;;5108370;28;20612;-79
2022/11/17 00:53:49;;;;;;;2.83;2.50;;;8.30;99.90;;;;;;5108061;28;20630;-80
2022/11/17 00:56:16;;;;;;;3.77;3.30;;;8.30;99.90;;;;;;5108087;28;20666;-80
2022/11/17 00:58:43;;;;;;;2.23;2.03;;;8.20;99.90;;;;;;5105931;28;20725;-80
2022/11/17 01:01:10;;;;;;;2.53;2.33;;;8.20;99.90;;;;;;5088381;28;20610;-80
2022/11/17 01:03:37;;;;;;;2.90;2.10;;;8.10;99.90;;;;;;5086956;28;20703;-80
2022/11/17 01:06:05;;;;;;;2.93;2.13;;;8.20;99.90;;;;;;5087741;28;21212;-80
2022/11/17 01:08:33;;;;;;;2.73;2.50;;;8.30;99.90;;;;;;5087281;28;20621;-80
2022/11/17 01:11:09;;;;;;;4.77;3.33;;;8.30;99.90;;;;;;5087829;28;20628;-80
2022/11/17 01:13:36;;;;;;;2.80;2.60;;;8.20;99.90;;;;;;5087009;28;21215;-80
2022/11/17 01:16:06;;;;;;;1.73;1.60;;;8.30;99.90;;;;;;5087177;28;20660;-80
2022/11/17 01:18:33;;;;;;;3.83;2.40;;;8.20;99.90;;;;;;5088043;28;20712;-80
2022/11/17 01:21:08;;;;;;;2.40;2.30;;;8.30;99.90;;;;;;5108133;28;20623;-80
2022/11/17 01:23:36;;;;;;;2.33;1.80;;;8.30;99.90;;;;;;5107557;28;20615;-80
2022/11/17 01:26:09;;;;;;;2.07;1.97;;;8.30;99.90;;;;;;5107680;28;21193;-79
2022/11/17 01:28:37;;;;;;;2.30;2.00;;;8.30;99.90;;;;;;5107324;28;20805;-79
2022/11/17 01:31:06;;;;;;;2.60;2.20;;;8.20;99.90;;;;;;5108149;28;20641;-80
2022/11/17 01:33:33;;;;;;;2.20;1.87;;;8.20;99.90;;;;;;5107642;28;20973;-80
2022/11/17 01:36:02;;;;;;;13.20;2.53;;;8.20;99.90;;;;;;5108046;28;20615;-79
2022/11/17 01:38:29;;;;;;;2.80;2.50;;;8.20;99.90;;;;;;5107577;28;20619;-80
2022/11/17 01:40:58;;;;;;;1.63;1.53;;;8.30;99.90;;;;;;5107418;28;20642;-80
2022/11/17 01:43:43;;;;;;;6.50;2.10;;;8.20;99.90;;;;;;5107648;28;21026;-80
2022/11/17 01:46:27;;;;;;;3.83;2.97;;;8.20;99.90;;;;;;5107702;28;20629;-80
2022/11/17 01:48:58;;;;;;;4.03;2.40;;;8.20;99.90;;;;;;5107696;28;20607;-80
2022/11/17 01:51:26;;;;;;;3.20;2.90;;;8.20;99.90;;;;;;5107345;28;20631;-81
2022/11/17 01:53:53;;;;;;;3.80;3.50;;;8.20;99.90;;;;;;5107588;28;21266;-80
2022/11/17 01:56:25;;;;;;;3.30;2.77;;;8.20;99.90;;;;;;5107493;28;21182;-80
2022/11/17 01:58:59;;;;;;;2.37;2.17;;;8.30;99.90;;;;;;5107725;28;20776;-80
2022/11/17 02:01:26;;;;;;;6.40;2.27;;;8.40;99.90;;;;;;5090460;28;20631;-79
2022/11/17 02:03:53;;;;;;;4.20;3.03;;;8.40;99.90;;;;;;5089352;28;20628;-81
2022/11/17 02:06:24;;;;;;;3.40;3.10;;;8.30;99.90;;;;;;5088743;28;20719;-80
2022/11/17 02:08:53;;;;;;;2.33;2.13;;;8.30;99.90;;;;;;5089659;28;20719;-80
2022/11/17 02:11:21;;;;;;;3.03;1.70;;;8.30;99.90;;;;;;5089959;28;20596;-79
2022/11/17 02:13:50;;;;;;;3.13;1.93;;;8.20;99.90;;;;;;5089968;28;21235;-79
2022/11/17 02:16:18;;;;;;;2.63;1.83;;;8.30;99.90;;;;;;5091306;28;21178;-80
2022/11/17 02:18:46;;;;;;;3.03;2.13;;;8.20;99.90;;;;;;5109578;28;20652;-79
2022/11/17 02:21:32;;;;;;;2.40;2.20;;;8.20;99.90;;;;;;5110048;28;20623;-79
2022/11/17 02:24:16;;;;;;;4.23;2.40;;;8.20;99.90;;;;;;5109984;28;20630;-80
2022/11/17 02:27:19;;;;;;;1.50;1.40;;;8.20;99.90;;;;;;5109715;28;20615;-80
2022/11/17 02:29:52;;;;;;;1.23;1.13;;;8.20;99.90;;;;;;5106028;28;20623;-80
2022/11/17 02:32:26;;;;;;;4.70;2.93;;;8.10;99.90;;;;;;5109817;28;21288;-79
2022/11/17 02:35:02;;;;;;;8.43;3.77;;;8.10;99.90;;;;;;5109709;28;20612;-80
2022/11/17 02:37:33;;;;;;;2.60;2.40;;;8.00;99.90;;;;;;5109240;28;20643;-80
2022/11/17 02:40:05;;;;;;;2.50;2.30;;;7.90;99.90;;;;;;5109958;28;20614;-79
2022/11/17 02:45:26;;;;;;;3.30;2.47;;;8.10;99.90;;;;;;5109844;28;20614;-79
2022/11/17 02:47:56;;;;;;;2.83;1.90;;;8.10;99.90;;;;;;5108994;28;20977;-80
2022/11/17 02:50:26;;;;;;;2.47;2.03;;;8.00;99.90;;;;;;5109740;28;20674;-79
2022/11/17 02:52:53;;;;;;;2.57;2.40;;;8.10;99.90;;;;;;5109442;28;20604;-80
2022/11/17 02:55:20;;;;;;;2.53;2.33;;;8.00;99.90;;;;;;5109365;28;20608;-80
2022/11/17 02:57:48;;;;;;;2.03;1.93;;;7.90;99.90;;;;;;5108771;28;20643;-80
2022/11/17 03:00:17;;;;;;;2.97;1.90;;;7.90;99.90;;;;;;5093877;28;20732;-80
2022/11/17 03:03:08;;;;;;;3.60;2.30;;;7.90;99.90;;;;;;5089016;28;20611;-80
2022/11/17 03:05:43;;;;;;;0.97;0.97;;;7.90;99.90;;;;;;5088883;28;20613;-80
2022/11/17 03:08:21;;;;;;;1.80;1.67;;;7.80;99.90;;;;;;5088116;28;20720;-79
2022/11/17 03:10:57;;;;;;;3.27;2.60;;;7.80;99.90;;;;;;5088523;28;20601;-79
2022/11/17 03:13:32;;;;;;;2.90;2.47;;;7.70;99.90;;;;;;5088260;28;20689;-80
2022/11/17 03:16:08;;;;;;;3.93;2.30;;;7.80;99.90;;;;;;5088936;28;20612;-79
2022/11/17 03:18:44;;;;;;;2.57;2.37;;;7.70;99.90;;;;;;5089091;28;21217;-80
2022/11/17 03:21:19;;;;;;;2.67;2.00;;;7.80;99.90;;;;;;5108509;28;20621;-80
2022/11/17 03:23:50;;;;;;;3.10;2.60;;;7.90;99.90;;;;;;5108671;28;20615;-80
2022/11/17 03:26:23;;;;;;;3.60;3.03;;;7.90;99.90;;;;;;5108656;28;20993;-80
2022/11/17 03:28:50;;;;;;;3.67;2.93;;;7.90;99.90;;;;;;5108641;28;21069;-80
2022/11/17 03:31:20;;;;;;;2.00;1.80;;;7.90;99.90;;;;;;5108875;28;20615;-80
2022/11/17 03:33:50;;;;;;;2.77;2.57;;;7.90;99.90;;;;;;5107979;28;21254;-80
2022/11/17 03:36:22;;;;;;;2.80;2.37;;;7.90;99.90;;;;;;5108582;28;21064;-80
2022/11/17 03:38:54;;;;;;;5.43;2.07;;;8.00;99.90;;;;;;5108373;28;20599;-80
2022/11/17 03:41:23;;;;;;;1.83;1.07;;;8.00;99.90;;;;;;5108633;28;20592;-80
2022/11/17 03:43:54;;;;;;;2.60;1.27;;;7.90;99.90;;;;;;5107971;28;20960;-80
2022/11/17 03:46:23;;;;;;;2.07;1.87;;;7.90;99.90;;;;;;5108251;28;20600;-80
2022/11/17 03:48:57;;;;;;;2.00;1.80;;;8.00;99.90;;;;;;5108149;28;20703;-80
2022/11/17 03:51:27;;;;;;;2.13;1.90;;;8.10;99.90;;;;;;5108325;28;20611;-80
2022/11/17 03:53:54;;;;;;;1.70;1.50;;;8.20;99.90;;;;;;5108087;28;20704;-80
2022/11/17 03:56:31;;;;;;;0.80;0.80;;;8.10;99.90;;;;;;5108073;28;20970;-81
2022/11/17 03:59:03;;;;;;;2.53;2.33;;;8.20;99.90;;;;;;5103990;28;20620;-81
2022/11/17 04:01:32;;;;;;;2.07;1.40;;;8.20;99.90;;;;;;5088199;28;21036;-81
2022/11/17 04:04:01;;;;;;;1.43;1.33;;;8.20;99.90;;;;;;5087751;28;20612;-81
2022/11/17 04:06:28;;;;;;;1.67;1.40;;;8.30;99.90;;;;;;5088133;28;20623;-80
2022/11/17 04:08:54;;;;;;;1.23;1.13;;;8.40;99.90;;;;;;5087081;28;20712;-79
2022/11/17 04:16:50;;;;;;;1.60;1.50;;;8.40;99.90;;;;;;5094114;28;20640;-81
2022/11/17 04:19:18;;;;;;;0.97;0.90;;;8.40;99.90;;;;;;5107166;28;20620;-81
2022/11/17 04:21:45;;;;;;;1.33;1.23;;;8.40;99.90;;;;;;5107282;28;21195;-81
2022/11/17 04:24:12;;;;;;;1.47;1.17;;;8.50;99.90;;;;;;5107873;28;20746;-81
2022/11/17 04:29:23;;;;;;;1.57;1.17;;;8.50;99.90;;;;;;5107723;28;20595;-81
2022/11/17 04:31:50;;;;;;;2.03;1.50;;;8.50;99.90;;;;;;5107310;28;21187;-81
2022/11/17 04:34:18;;;;;;;1.13;1.03;;;8.50;99.90;;;;;;5107519;28;21268;-81
2022/11/17 04:36:45;;;;;;;1.30;1.20;;;8.60;99.90;;;;;;5107402;28;20742;-81
2022/11/17 04:39:13;;;;;;;1.43;1.07;;;8.50;99.90;;;;;;5107838;28;20612;-81
2022/11/17 04:44:31;;;;;;;3.20;1.43;;;8.60;99.90;;;;;;5091010;28;20712;-81
2022/11/17 04:47:00;;;;;;;3.50;2.03;;;8.70;99.90;;;;;;5107506;28;20623;-81
2022/11/17 04:49:29;;;;;;;2.70;2.10;;;8.70;99.90;;;;;;5107735;28;20620;-81
2022/11/17 04:51:55;;;;;;;7.37;5.10;;;8.60;99.90;;;;;;5107586;28;20623;-81
2022/11/17 04:54:24;;;;;;;4.60;2.50;;;8.70;99.90;;;;;;5107533;28;20622;-81
2022/11/17 04:56:51;;;;;;;2.63;1.67;;;8.70;99.90;;;;;;5106582;28;20604;-81
2022/11/17 04:59:18;;;;;;;0.87;0.87;;;8.80;99.90;;;;;;5100795;28;21041;-81
2022/11/17 05:01:45;;;;;;;2.10;1.40;;;8.70;99.90;;;;;;5086814;28;21237;-81
2022/11/17 05:04:14;;;;;;;4.63;1.50;;;8.70;99.90;;;;;;5087173;28;20609;-80
2022/11/17 05:06:44;;;;;;;1.30;1.20;;;8.80;99.90;;;;;;5086954;28;20617;-81
2022/11/17 05:09:13;;;;;;;3.57;2.33;;;8.70;99.90;;;;;;5087001;28;20629;-81
2022/11/17 05:14:25;;;;;;;2.07;1.90;;;8.70;99.90;;;;;;5086691;28;21149;-81
2022/11/17 05:17:08;;;;;;;4.53;2.00;;;8.70;99.90;;;;;;5092943;28;20648;-81
2022/11/17 05:19:36;;;;;;;1.27;1.10;;;8.70;99.90;;;;;;5106971;28;20630;-81
2022/11/17 05:23:52;;;;;;;2.60;1.63;;;8.70;99.90;;;;;;5106615;28;20612;-81
2022/11/17 05:24:52;;;;;;;1.83;1.50;;;8.70;99.90;;;;;;5106575;28;20674;-81
2022/11/17 05:27:19;;;;;;;3.73;2.37;;;8.70;99.90;;;;;;5106872;28;20615;-81
2022/11/17 05:29:46;;;;;;;3.13;2.30;;;8.70;99.90;;;;;;5107214;28;20608;-81
2022/11/17 05:32:12;;;;;;;3.50;3.20;;;8.70;99.90;;;;;;5101812;28;20630;-82
2022/11/17 05:34:39;;;;;;;4.97;3.13;;;8.70;99.90;;;;;;5107048;28;20658;-81
2022/11/17 05:37:07;;;;;;;3.60;3.00;;;8.70;99.90;;;;;;5111361;28;21157;-81
2022/11/17 05:39:34;;;;;;;2.93;1.87;;;8.70;99.90;;;;;;5111250;28;20619;-81
2022/11/17 05:42:01;;;;;;;3.47;1.40;;;8.70;99.90;;;;;;5107982;28;20624;-81
2022/11/17 05:44:28;;;;;;;2.00;1.80;;;8.70;99.90;;;;;;5091364;28;20727;-81
2022/11/17 05:46:55;;;;;;;1.83;1.33;;;8.80;99.90;;;;;;5090301;28;20711;-81
2022/11/17 05:49:22;;;;;;;1.93;1.70;;;8.80;99.90;;;;;;5093649;28;20626;-81
2022/11/17 05:51:49;;;;;;;1.40;1.30;;;8.90;99.90;;;;;;5101262;28;20617;-81
2022/11/17 05:54:17;;;;;;;1.13;0.70;;;8.80;99.90;;;;;;5099552;28;20616;-81
2022/11/17 05:56:46;;;;;;;0.80;0.80;;;8.80;99.90;;;;;;5100597;28;20618;-81
2022/11/17 05:59:22;;;;;;;1.80;1.70;;;8.70;99.90;;;;;;5100541;28;20660;-82
2022/11/17 06:01:54;;;;;;;2.53;1.80;;;8.70;99.90;;;;;;5109427;28;21023;-82
2022/11/17 06:04:22;;;;;;;1.33;1.03;;;8.70;99.90;;;;;;5106909;28;20616;-83
2022/11/17 06:06:50;;;;;;;12.10;1.63;;;8.70;99.90;;;;;;5105876;28;20611;-83
2022/11/17 06:09:18;;;;;;;1.23;1.13;;;8.70;99.90;;;;;;5111226;28;20660;-83
2022/11/17 06:11:45;;;;;;;0.80;0.80;;;8.70;99.90;;;;;;5110495;28;20730;-84
2022/11/17 06:14:12;;;;;;;2.57;2.07;;;8.80;99.90;;;;;;5110627;28;21017;-83
2022/11/17 06:16:42;;;;;;;1.33;1.23;;;8.80;99.90;;;;;;5111148;28;21064;-83
2022/11/17 06:19:14;;;;;;;0.93;0.93;;;9.30;99.90;;;;;;5110773;28;20666;-83
2022/11/17 06:21:41;;;;;;;1.10;0.97;;;8.80;99.90;;;;;;5101664;28;20715;-83
2022/11/17 06:24:09;;;;;;;1.63;1.53;;;8.90;99.90;;;;;;5099405;28;20631;-83
2022/11/17 06:26:39;;;;;;;4.07;0.93;;;8.90;99.90;;;;;;5100397;28;21196;-83
2022/11/17 06:29:08;;;;;;;1.27;1.17;;;8.90;99.90;;;;;;5095483;28;20621;-82
2022/11/17 06:31:35;;;;;;;1.70;1.60;;;8.90;99.90;;;;;;5088508;28;20615;-83
2022/11/17 06:34:02;;;;;;;1.67;1.03;;;8.90;99.90;;;;;;5108764;28;20710;-82
2022/11/17 06:36:30;;;;;;;0.80;0.80;;;9.00;99.90;;;;;;5110508;28;20626;-83
2022/11/17 06:38:57;;;;;;;0.97;0.60;;;9.00;99.90;;;;;;5109521;28;20759;-83
2022/11/17 06:41:24;;;;;;;0.97;0.93;;;8.90;99.90;;;;;;5110211;28;20702;-83
2022/11/17 06:43:53;;;;;;;1.23;1.13;;;8.90;99.90;;;;;;5108650;28;20974;-83
2022/11/17 06:46:19;;;;;;;0.90;0.90;;;8.90;99.90;;;;;;5109812;28;21268;-83
2022/11/17 06:48:46;;;;;;;3.10;1.30;;;8.90;99.90;;;;;;5110161;28;20646;-83
2022/11/17 06:51:13;;;;;;;0.80;0.80;;;9.00;99.90;;;;;;5105128;28;20636;-83
2022/11/17 06:53:40;;;;;;;0.90;0.90;;;8.90;99.90;;;;;;5099763;28;20987;-82
2022/11/17 06:56:08;;;;;;;1.70;0.90;;;8.80;99.90;;;;;;5106938;28;21177;-82
2022/11/17 06:58:36;;;;;;;2.23;1.80;;;8.90;99.90;;;;;;5109355;28;20667;-82
2022/11/17 07:01:07;;;;;;;1.83;1.73;;;8.90;99.90;;;;;;5109946;28;21059;-82
2022/11/17 07:03:36;;;;;;;1.67;1.37;;;9.10;99.90;;;;;;5105691;28;20630;-83
2022/11/17 07:06:04;;;;;;;3.60;1.07;;;8.60;99.90;;;;;;5097047;28;20621;-83
2022/11/17 07:08:31;;;;;;;1.40;1.00;;;9.00;99.90;;;;;;5099251;28;20643;-82
2022/11/17 07:11:02;;;;;;;1.77;1.67;;;9.10;99.90;;;;;;5099616;28;20644;-83
2022/11/17 07:13:30;;;;;;;0.70;0.60;;;;;;;;;;5099399;28;20718;-83
2022/11/17 07:16:03;;;;;;;1.07;1.07;;;9.00;99.90;;;;;;5100010;28;20626;-83
2022/11/17 07:18:31;;;;;;;1.30;0.80;;;9.20;99.90;;;;;;5100683;28;20667;-83
2022/11/17 07:21:02;;;;;;;0.40;0.40;;;9.10;99.90;;;;;;5109664;28;20651;-83
2022/11/17 07:23:29;;;;;;;0.57;0.57;;;9.00;99.90;;;;;;5108924;28;20619;-82
2022/11/17 07:25:56;;;;;;;0.90;0.90;;;9.10;99.90;;;;;;5105642;28;21213;-83
2022/11/17 07:28:23;;;;;;;1.50;1.17;;;9.80;99.90;;;;;;5097725;28;20617;-83
2022/11/17 07:30:50;;;;;;;0.80;0.80;;;9.10;99.90;;;;;;5097967;28;20652;-82
2022/11/17 07:33:17;;;;;;;0.87;0.87;;;9.10;99.90;;;;;;5094980;28;21211;-82
2022/11/17 07:35:45;;;;;;;0.63;0.60;;;9.10;99.90;;;;;;5108977;28;20611;-82
2022/11/17 07:38:12;;;;;;;0.60;0.50;;;9.20;99.90;;;;;;5108904;28;21327;-81
2022/11/17 07:40:39;;;;;;;2.50;1.40;;;9.20;99.90;;;;;;5108765;28;20620;-83
2022/11/17 07:43:05;;;;;;;1.43;0.90;;;9.30;99.90;;;;;;5108324;28;20620;-83
2022/11/17 07:45:32;;;;;;;0.87;0.67;;;9.70;99.90;;;;;;5099305;28;20621;-83
2022/11/17 07:48:01;;;;;;;0.80;0.73;;;9.30;99.90;;;;;;5108799;28;21874;-82
2022/11/17 07:50:28;;;;;;;1.17;0.93;;;9.30;99.90;;;;;;5108836;28;20596;-82
2022/11/17 07:52:57;;;;;;;0.43;0.43;;;9.40;99.90;;;;;;5108056;28;20719;-82
2022/11/17 07:55:25;;;;;;;0.70;0.70;;;9.50;99.90;;;;;;5107551;28;20655;-82
2022/11/17 07:57:56;;;;;;;3.70;0.83;;;9.30;99.90;;;;;;5107899;28;21403;-82
2022/11/17 08:00:23;;;;;;;3.13;0.47;;;9.70;99.90;;;;;;5091636;28;20710;-82
2022/11/17 08:02:50;;;;;;;0.63;0.63;;;9.60;99.90;;;;;;5098441;28;20647;-83
2022/11/17 08:05:17;;;;;;;0.80;0.80;;;9.80;99.90;;;;;;5101356;28;21205;-83
2022/11/17 08:07:45;;;;;;;0.63;0.50;;;9.70;99.90;;;;;;5107045;28;20681;-83
2022/11/17 08:10:13;;;;;;;0.30;0.30;;;9.80;99.90;;;;;;5090153;28;21204;-83
2022/11/17 08:12:40;;;;;;;0.30;0.30;;;9.90;99.90;;;;;;5094827;28;20639;-84
2022/11/17 08:15:08;;;;;;;0.80;0.57;;;9.90;99.90;;;;;;5099897;28;20688;-83
2022/11/17 08:17:35;;;;;;;0.40;0.30;;;10.00;99.90;;;;;;5106610;28;20631;-83
2022/11/17 08:20:03;;;;;;;0.50;0.50;;;10.30;99.90;;;;;;5106733;28;20682;-83
2022/11/17 08:22:30;;;;;;;0.40;0.30;;;10.10;99.90;;;;;;5107491;28;20624;-83
2022/11/17 08:24:57;;;;;;;0.90;0.50;;;10.30;99.90;;;;;;5108399;28;20615;-83
2022/11/17 08:27:25;;;;;;;0.50;0.30;;;10.20;99.90;;;;;;5099682;28;20613;-83
2022/11/17 08:29:52;;;;;;;0.50;0.20;;;10.30;99.90;;;;;;5088091;28;20682;-83
2022/11/17 08:32:19;;;;;;;2.07;0.40;;;10.30;99.90;;;;;;5093161;28;20620;-82
2022/11/17 08:34:46;;;;;;;1.23;0.50;;;10.40;99.90;;;;;;5107879;28;21065;-83
2022/11/17 08:37:13;;;;;;;0.53;0.50;;;10.30;99.90;;;;;;5108132;28;20600;-83
2022/11/17 08:39:39;;;;;;;0.30;0.10;;;10.40;99.90;;;;;;5107115;28;20691;-83
2022/11/17 08:42:06;;;;;;;1.60;0.40;;;10.50;99.90;;;;;;5106900;28;20640;-82
2022/11/17 08:44:35;;;;;;;3.20;0.67;;;10.40;99.90;;;;;;5108089;28;21300;-83
2022/11/17 08:47:01;;;;;;;0.40;0.20;;;10.40;99.90;;;;;;5108332;28;20688;-83
2022/11/17 08:49:28;;;;;;;0.40;0.30;;;10.40;99.90;;;;;;5107859;28;20660;-83
2022/11/17 08:51:55;;;;;;;0.30;0.20;;;10.40;99.90;;;;;;5106812;28;20612;-82
2022/11/17 08:54:22;;;;;;;1.90;0.50;;;;;;;;;;5106856;28;20624;-83
2022/11/17 08:56:49;;;;;;;0.30;0.27;;;10.50;99.90;;;;;;5108068;28;20669;-82
2022/11/17 08:59:16;;;;;;;0.30;0.20;;;10.60;99.90;;;;;;5108111;28;21224;-82
2022/11/17 09:01:44;;;;;;;0.50;0.30;;;10.50;99.90;;;;;;5107765;28;20613;-83
2022/11/17 09:04:11;;;;;;;0.40;0.30;;;10.50;99.90;;;;;;5106954;28;20651;-82
2022/11/17 09:06:37;;;;;;;1.07;0.73;;;10.60;99.90;;;;;;5098526;28;20627;-82
2022/11/17 09:09:04;;;;;;;0.40;0.20;;;10.60;99.90;;;;;;5108679;28;20619;-82
2022/11/17 09:11:31;;;;;;;0.30;0.20;;;10.80;99.90;;;;;;5108018;28;21329;-84
2022/11/17 09:13:58;;;;;;;0.43;0.37;;;10.70;99.90;;;;;;5111297;28;20615;-82
2022/11/17 09:16:25;;;;;;;0.30;0.20;;;10.90;99.90;;;;;;5112250;28;20608;-82
2022/11/17 09:18:57;;;;;;;0.30;0.20;;;10.80;99.90;;;;;;5111905;28;20766;-82
2022/11/17 09:21:25;;;;;;;0.90;0.37;;;11.00;99.90;;;;;;5096439;28;20719;-82
2022/11/17 09:23:53;;;;;;;0.30;0.20;;;10.90;99.90;;;;;;5101422;28;20719;-82
2022/11/17 09:26:20;;;;;;;0.30;0.20;;;11.00;99.90;;;;;;5091130;28;20627;-83
2022/11/17 09:28:47;;;;;;;0.40;0.33;;;11.10;99.90;;;;;;5094945;28;20723;-82
2022/11/17 09:31:16;;;;;;;0.30;0.23;;;11.00;99.90;;;;;;5112337;28;20689;-82
2022/11/17 09:33:43;;;;;;;0.30;0.20;;;11.10;99.90;;;;;;5111399;28;20653;-82
2022/11/17 09:36:14;;;;;;;0.30;0.20;;;11.00;99.90;;;;;;5111377;28;20706;-81
2022/11/17 09:38:41;;;;;;;0.30;0.20;;;11.30;99.90;;;;;;5112358;28;20765;-82
2022/11/17 09:41:27;;;;;;;0.60;0.40;;;11.30;99.90;;;;;;5110386;28;20619;-82
2022/11/17 09:44:11;;;;;;;1.27;0.77;;;11.40;99.90;;;;;;5111462;28;20627;-82
2022/11/17 09:46:56;;;;;;;0.40;0.30;;;11.70;99.90;;;;;;5111781;28;20615;-81
2022/11/17 09:49:32;;;;;;;0.30;0.20;;;11.50;99.90;;;;;;5111961;28;20677;-82
2022/11/17 09:52:07;;;;;;;0.30;0.20;;;11.70;99.90;;;;;;5101330;28;20635;-83
2022/11/17 09:54:42;;;;;;;0.40;0.27;;;11.70;99.90;;;;;;5100975;28;20611;-82
2022/11/17 09:57:20;;;;;;;0.30;0.30;;;11.70;99.90;;;;;;5106218;28;20616;-82
2022/11/17 09:59:51;;;;;;;0.37;0.30;;;11.60;99.90;;;;;;5101787;28;20671;-82
2022/11/17 10:02:19;;;;;;;1.40;0.63;;;11.60;99.90;;;;;;5101173;28;20678;-82
2022/11/17 10:04:47;;;;;;;1.23;0.60;;;11.60;99.90;;;;;;5100863;28;20616;-82
2022/11/17 10:07:15;;;;;;;0.47;0.30;;;11.70;99.90;;;;;;5098881;28;20616;-83
2022/11/17 10:09:43;;;;;;;0.40;0.27;;;11.70;99.90;;;;;;5101223;28;20616;-82
2022/11/17 10:12:17;;;;;;;0.50;0.50;;;11.70;99.90;;;;;;5102426;28;20604;-82
2022/11/17 10:14:45;;;;;;;0.47;0.27;;;11.70;99.90;;;;;;5093799;28;20612;-82
2022/11/17 10:17:12;;;;;;;1.07;0.60;;;11.60;99.90;;;;;;5100245;28;20685;-82
2022/11/17 10:19:40;;;;;;;0.60;0.40;;;11.60;99.90;;;;;;5110161;28;20740;-83
2022/11/17 10:22:20;;;;;;;0.90;0.50;;;11.70;99.90;;;;;;5110259;28;20712;-82
2022/11/17 10:24:49;;;;;;;0.50;0.20;;;11.80;99.90;;;;;;5110703;28;20631;-81
2022/11/17 10:27:21;;;;;;;0.30;0.20;;;11.70;99.90;;;;;;5110929;28;20616;-81
2022/11/17 10:29:57;;;;;;;0.60;0.30;;;11.80;99.90;;;;;;5110817;28;20727;-82
2022/11/17 10:32:24;;;;;;;0.40;0.30;;;12.00;99.90;;;;;;5109975;28;20614;-82
2022/11/17 10:34:53;;;;;;;1.70;0.50;;;12.10;99.90;;;;;;5109871;28;20643;-82
2022/11/17 10:37:30;;;;;;;0.80;0.30;;;12.10;99.90;;;;;;5099944;28;21502;-82
2022/11/17 10:40:15;;;;;;;3.50;0.70;;;12.10;99.40;;;;;;5101318;28;20669;-82
2022/11/17 10:42:52;;;;;;;0.70;0.67;;;11.70;98.70;;;;;;5106123;28;20730;-82
2022/11/17 10:45:19;;;;;;;0.30;0.20;;;12.10;99.10;;;;;;5113061;27;20737;-81
2022/11/17 10:47:46;;;;;;;0.40;0.20;;;12.00;98.70;;;;;;5130315;27;20725;-82
2022/11/17 10:50:22;;;;;;;0.30;0.23;;;12.00;98.30;;;;;;5112886;27;20641;-83
2022/11/17 10:52:52;;;;;;;0.33;0.30;;;12.20;98.50;;;;;;5100224;28;20626;-81
2022/11/17 10:55:24;;;;;;;0.30;0.20;;;12.20;98.20;;;;;;5096210;28;20612;-81
2022/11/17 10:57:54;;;;;;;0.40;0.20;;;12.10;98.50;;;;;;5100071;28;20624;-82
2022/11/17 11:00:28;;;;;;;0.40;0.20;;;12.10;98.20;;;;;;5099495;28;20744;-82
2022/11/17 11:03:07;;;;;;;0.90;0.77;;;12.10;97.90;;;;;;5100180;28;20616;-82
2022/11/17 11:05:33;;;;;;;0.80;0.50;;;12.10;98.30;;;;;;5099758;28;20611;-83
2022/11/17 11:08:21;;;;;;;0.40;0.20;;;12.00;98.30;;;;;;5098373;28;20721;-83
2022/11/17 11:10:51;;;;;;;0.30;0.20;;;12.00;98.00;;;;;;5099502;28;20626;-82
2022/11/17 11:13:24;;;;;;;0.30;0.20;;;12.00;98.90;;;;;;5097149;28;20631;-83
2022/11/17 11:15:52;;;;;;;0.30;0.10;;;12.00;98.40;;;;;;5097080;28;20929;-82
2022/11/17 11:18:20;;;;;;;0.87;0.73;;;12.10;97.70;;;;;;5107568;28;20628;-83
2022/11/17 11:21:08;;;;;;;0.50;0.20;;;12.10;98.00;;;;;;5109327;28;20667;-83
2022/11/17 11:23:44;;;;;;;0.60;0.33;;;12.00;97.70;;;;;;5108374;28;21355;-83
2022/11/17 11:26:27;;;;;;;0.57;0.30;;;12.20;98.20;;;;;;5108830;28;21374;-82
2022/11/17 11:29:05;;;;;;;0.40;0.30;;;12.10;97.60;;;;;;5109216;28;20684;-82
2022/11/17 11:31:40;;;;;;;0.30;0.20;;;12.10;97.80;;;;;;5108752;28;20654;-84
2022/11/17 11:34:19;;;;;;;0.50;0.40;;;12.10;97.60;;;;;;5108778;28;20623;-82
2022/11/17 11:36:53;;;;;;;6.53;0.40;;;12.10;98.00;;;;;;5108431;28;20711;-83
2022/11/17 11:39:37;;;;;;;2.17;1.30;;;12.00;98.60;;;;;;5082240;28;20671;-82
2022/11/17 11:42:29;;;;;;;0.70;0.53;;;11.80;98.00;;;;;;5095481;28;20667;-81
2022/11/17 11:45:13;;;;;;;0.30;0.30;;;12.10;98.20;;;;;;5095653;28;21189;-82
2022/11/17 11:47:55;;;;;;;1.30;1.20;;;12.10;98.20;;;;;;5090576;28;20727;-82
2022/11/17 11:50:25;;;;;;;0.70;0.50;;;12.10;98.20;;;;;;5109143;28;20610;-81
2022/11/17 11:52:56;;;;;;;0.50;0.50;;;12.10;98.10;;;;;;5108030;28;20761;-82
2022/11/17 11:55:31;;;;;;;2.73;0.50;;;12.30;97.80;;;;;;5108571;28;20718;-82
2022/11/17 11:58:06;;;;;;;1.27;0.50;;;12.40;99.00;;;;;;5108828;28;20698;-82
2022/11/17 12:00:34;;;;;;;0.70;0.50;;;12.20;98.30;;;;;;5108628;28;20678;-83
2022/11/17 12:03:11;;;;;;;0.57;0.47;;;12.20;98.40;;;;;;5108658;28;20731;-82
2022/11/17 12:05:49;;;;;;;0.70;0.50;;;12.20;98.10;;;;;;5108294;28;20619;-82
2022/11/17 12:08:26;;;;;;;0.63;0.30;;;12.20;97.70;;;;;;5100179;28;20631;-82
2022/11/17 12:11:59;;;;;;;0.40;0.30;;;12.40;98.00;;;;;;5100036;28;21243;-82
2022/11/17 12:13:57;;;;;;;0.30;0.20;;;12.30;97.60;;;;;;5105552;27;20620;-83
2022/11/17 12:16:29;;;;;;;0.50;0.40;;;12.60;97.70;;;;;;5098602;28;21467;-83
2022/11/17 12:18:56;;;;;;;0.30;0.30;;;12.30;97.60;;;;;;5099235;28;20956;-82
2022/11/17 12:21:24;;;;;;;0.70;0.63;;;12.30;97.20;;;;;;5096313;28;20703;-82
2022/11/17 12:24:17;;;;;;;0.30;0.20;;;12.20;97.30;;;;;;5096939;28;20716;-82
2022/11/17 12:26:46;;;;;;;1.20;0.67;;;12.00;97.00;;;;;;5097923;28;20627;-83
2022/11/17 12:29:30;;;;;;;0.30;0.20;;;11.80;97.40;;;;;;5097542;28;20643;-82
2022/11/17 12:31:59;;;;;;;0.40;0.20;;;11.80;97.70;;;;;;5098393;28;20615;-82
2022/11/17 12:34:31;;;;;;;0.50;0.43;;;11.70;97.70;;;;;;5099413;28;21364;-81
2022/11/17 12:37:28;;;;;;;0.40;0.30;;;11.80;97.40;;;;;;5099065;28;20618;-82
2022/11/17 12:40:01;;;;;;;0.30;0.20;;;11.80;98.10;;;;;;5105808;28;20667;-82
2022/11/17 12:42:30;;;;;;;0.40;0.30;;;11.80;98.00;;;;;;5106539;28;20999;-82
2022/11/17 12:45:01;;;;;;;0.57;0.50;;;11.80;97.50;;;;;;5095872;28;20720;-82
2022/11/17 12:47:30;;;;;;;2.20;0.80;;;11.90;97.80;;;;;;5099234;28;20623;-82
2022/11/17 12:50:40;;;;;;;0.50;0.30;;;12.00;98.80;;;;;;5095386;28;21186;-82
2022/11/17 12:53:19;;;;;;;0.50;0.40;;;12.00;98.20;;;;;;5099750;28;20701;-82
2022/11/17 12:56:12;;;;;;;0.60;0.33;;;11.90;97.60;;;;;;5097037;28;20655;-82
2022/11/17 12:58:52;;;;;;;0.47;0.47;;;11.90;97.20;;;;;;5095921;28;20623;-83
2022/11/17 13:01:28;;;;;;;0.30;0.20;;;11.90;96.90;;;;;;5096192;28;20664;-82
2022/11/17 13:03:59;;;;;;;0.90;0.73;;;12.00;97.00;;;;;;5098439;28;20724;-81
2022/11/17 13:06:26;;;;;;;0.40;0.30;;;12.10;96.40;;;;;;5094927;28;20723;-82
2022/11/17 13:08:55;;;;;;;0.73;0.53;;;12.10;96.60;;;;;;5106291;28;21202;-82
2022/11/17 13:11:22;;;;;;;0.50;0.50;;;12.20;96.60;;;;;;5107672;28;21224;-81
2022/11/17 13:14:07;;;;;;;1.90;0.40;;;12.10;96.90;;;;;;5107492;28;20620;-81
2022/11/17 13:16:35;;;;;;;1.33;0.70;;;12.30;96.50;;;;;;5107662;28;20616;-82
2022/11/17 13:19:03;;;;;;;0.43;0.43;;;12.30;95.80;;;;;;5105201;28;20612;-82
2022/11/17 13:21:32;;;;;;;2.97;0.90;;;12.30;95.70;;;;;;5098447;28;20608;-82
2022/11/17 13:24:01;;;;;;;1.30;0.30;;;12.30;95.70;;;;;;5097441;28;21205;-82
2022/11/17 13:26:34;;;;;;;2.50;0.57;;;12.40;94.70;;;;;;5097487;28;20623;-82
2022/11/17 13:29:07;;;;;;;1.80;0.40;;;12.40;94.90;;;;;;5096595;28;21340;-82
2022/11/17 13:31:35;;;;;;;6.43;0.73;;;12.30;96.10;;;;;;5095348;28;20616;-82
2022/11/17 13:34:05;;;;;;;0.40;0.30;;;12.30;95.80;;;;;;5099060;28;20728;-82
2022/11/17 13:36:33;;;;;;;0.50;0.30;;;12.30;95.80;;;;;;5095773;28;20624;-82
2022/11/17 13:39:00;;;;;;;1.00;0.50;;;12.20;95.50;;;;;;5097562;28;20721;-82